sensor_id;sensor_type;location;lat;lon;timestamp;P1;durP1;ratioP1;P2;durP2;ratioP2
12328;SDS011;6230;52.390;10.256;2022-09-29T00:02:11;10.50;;;8.73;;
12328;SDS011;6230;52.390;10.256;2022-09-29T00:04:37;9.47;;;8.17;;
12328;SDS011;6230;52.390;10.256;2022-09-29T00:07:02;9.93;;;8.80;;
12328;SDS011;6230;52.390;10.256;2022-09-29T00:09:28;10.33;;;9.10;;
12328;SDS011;6230;52.390;10.256;2022-09-29T00:11:54;11.13;;;8.03;;
12328;SDS011;6230;52.390;10.256;2022-09-29T00:14:20;8.90;;;8.00;;
12328;SDS011;6230;52.390;10.256;2022-09-29T00:16:46;8.90;;;8.00;;
12328;SDS011;6230;52.390;10.256;2022-09-29T00:19:12;12.17;;;9.20;;
12328;SDS011;6230;52.390;10.256;2022-09-29T00:21:37;9.40;;;8.40;;
12328;SDS011;6230;52.390;10.256;2022-09-29T00:24:03;12.07;;;8.00;;
12328;SDS011;6230;52.390;10.256;2022-09-29T00:26:28;9.20;;;8.20;;
12328;SDS011;6230;52.390;10.256;2022-09-29T00:28:56;10.23;;;8.17;;
12328;SDS011;6230;52.390;10.256;2022-09-29T00:31:26;11.23;;;8.23;;
12328;SDS011;6230;52.390;10.256;2022-09-29T00:33:54;9.73;;;8.47;;
12328;SDS011;6230;52.390;10.256;2022-09-29T00:36:20;8.93;;;8.03;;
12328;SDS011;6230;52.390;10.256;2022-09-29T00:38:47;10.77;;;8.63;;
12328;SDS011;6230;52.390;10.256;2022-09-29T00:41:14;11.90;;;9.03;;
12328;SDS011;6230;52.390;10.256;2022-09-29T00:46:42;13.67;;;8.77;;
12328;SDS011;6230;52.390;10.256;2022-09-29T00:51:49;8.90;;;7.43;;
12328;SDS011;6230;52.390;10.256;2022-09-29T00:54:21;8.87;;;7.77;;
12328;SDS011;6230;52.390;10.256;2022-09-29T00:56:53;8.17;;;7.37;;
12328;SDS011;6230;52.390;10.256;2022-09-29T00:59:22;10.43;;;7.57;;
12328;SDS011;6230;52.390;10.256;2022-09-29T01:01:52;8.03;;;7.07;;
12328;SDS011;6230;52.390;10.256;2022-09-29T01:04:18;8.93;;;7.13;;
12328;SDS011;6230;52.390;10.256;2022-09-29T01:06:47;9.37;;;7.70;;
12328;SDS011;6230;52.390;10.256;2022-09-29T01:09:19;9.17;;;7.60;;
12328;SDS011;6230;52.390;10.256;2022-09-29T01:11:49;9.17;;;7.33;;
12328;SDS011;6230;52.390;10.256;2022-09-29T01:14:18;9.00;;;6.17;;
12328;SDS011;6230;52.390;10.256;2022-09-29T01:16:45;6.97;;;6.27;;
12328;SDS011;6230;52.390;10.256;2022-09-29T01:30:58;7.40;;;6.60;;
12328;SDS011;6230;52.390;10.256;2022-09-29T01:36:23;9.00;;;7.00;;
12328;SDS011;6230;52.390;10.256;2022-09-29T01:41:45;9.63;;;7.13;;
12328;SDS011;6230;52.390;10.256;2022-09-29T01:44:30;8.23;;;6.77;;
12328;SDS011;6230;52.390;10.256;2022-09-29T01:47:06;7.10;;;6.40;;
12328;SDS011;6230;52.390;10.256;2022-09-29T01:49:35;9.13;;;6.90;;
12328;SDS011;6230;52.390;10.256;2022-09-29T01:52:09;8.60;;;6.53;;
12328;SDS011;6230;52.390;10.256;2022-09-29T01:54:43;9.17;;;6.83;;
12328;SDS011;6230;52.390;10.256;2022-09-29T01:57:14;10.50;;;6.40;;
12328;SDS011;6230;52.390;10.256;2022-09-29T02:00:05;6.57;;;5.90;;
12328;SDS011;6230;52.390;10.256;2022-09-29T02:05:15;7.27;;;6.30;;
12328;SDS011;6230;52.390;10.256;2022-09-29T02:07:53;6.97;;;6.17;;
12328;SDS011;6230;52.390;10.256;2022-09-29T02:10:23;7.37;;;6.33;;
12328;SDS011;6230;52.390;10.256;2022-09-29T02:12:53;7.73;;;5.37;;
12328;SDS011;6230;52.390;10.256;2022-09-29T02:15:24;7.20;;;5.80;;
12328;SDS011;6230;52.390;10.256;2022-09-29T02:17:53;6.50;;;5.90;;
12328;SDS011;6230;52.390;10.256;2022-09-29T02:20:21;7.63;;;5.90;;
12328;SDS011;6230;52.390;10.256;2022-09-29T02:22:48;7.73;;;5.90;;
12328;SDS011;6230;52.390;10.256;2022-09-29T02:25:15;7.43;;;5.83;;
12328;SDS011;6230;52.390;10.256;2022-09-29T02:27:43;7.37;;;6.43;;
12328;SDS011;6230;52.390;10.256;2022-09-29T02:30:10;8.23;;;6.23;;
12328;SDS011;6230;52.390;10.256;2022-09-29T02:32:36;7.63;;;5.70;;
12328;SDS011;6230;52.390;10.256;2022-09-29T02:35:02;8.03;;;6.00;;
12328;SDS011;6230;52.390;10.256;2022-09-29T02:37:43;10.07;;;6.57;;
12328;SDS011;6230;52.390;10.256;2022-09-29T02:40:43;8.03;;;5.90;;
12328;SDS011;6230;52.390;10.256;2022-09-29T02:48:55;7.90;;;6.20;;
12328;SDS011;6230;52.390;10.256;2022-09-29T02:51:59;6.77;;;6.07;;
12328;SDS011;6230;52.390;10.256;2022-09-29T02:54:48;6.70;;;5.73;;
12328;SDS011;6230;52.390;10.256;2022-09-29T02:57:27;6.47;;;5.83;;
12328;SDS011;6230;52.390;10.256;2022-09-29T03:00:06;7.27;;;5.80;;
12328;SDS011;6230;52.390;10.256;2022-09-29T03:02:35;7.17;;;5.67;;
12328;SDS011;6230;52.390;10.256;2022-09-29T03:05:03;6.97;;;6.00;;
12328;SDS011;6230;52.390;10.256;2022-09-29T03:07:31;7.07;;;5.63;;
12328;SDS011;6230;52.390;10.256;2022-09-29T03:09:58;7.33;;;6.10;;
12328;SDS011;6230;52.390;10.256;2022-09-29T03:12:23;7.80;;;6.30;;
12328;SDS011;6230;52.390;10.256;2022-09-29T03:14:49;7.87;;;6.17;;
12328;SDS011;6230;52.390;10.256;2022-09-29T03:17:15;8.27;;;5.43;;
12328;SDS011;6230;52.390;10.256;2022-09-29T03:19:40;7.50;;;6.27;;
12328;SDS011;6230;52.390;10.256;2022-09-29T03:22:06;8.27;;;6.13;;
12328;SDS011;6230;52.390;10.256;2022-09-29T03:24:31;11.23;;;7.20;;
12328;SDS011;6230;52.390;10.256;2022-09-29T03:26:57;6.80;;;6.10;;
12328;SDS011;6230;52.390;10.256;2022-09-29T03:29:22;8.87;;;6.60;;
12328;SDS011;6230;52.390;10.256;2022-09-29T03:31:48;8.63;;;6.73;;
12328;SDS011;6230;52.390;10.256;2022-09-29T03:34:13;7.93;;;6.63;;
12328;SDS011;6230;52.390;10.256;2022-09-29T03:36:39;8.33;;;6.73;;
12328;SDS011;6230;52.390;10.256;2022-09-29T03:39:05;7.53;;;6.43;;
12328;SDS011;6230;52.390;10.256;2022-09-29T03:41:31;8.83;;;6.83;;
12328;SDS011;6230;52.390;10.256;2022-09-29T03:43:57;10.67;;;7.07;;
12328;SDS011;6230;52.390;10.256;2022-09-29T03:46:22;7.90;;;6.70;;
12328;SDS011;6230;52.390;10.256;2022-09-29T03:48:48;8.80;;;7.33;;
12328;SDS011;6230;52.390;10.256;2022-09-29T03:51:14;8.37;;;7.30;;
12328;SDS011;6230;52.390;10.256;2022-09-29T03:53:39;10.20;;;7.23;;
12328;SDS011;6230;52.390;10.256;2022-09-29T03:56:05;10.97;;;6.93;;
12328;SDS011;6230;52.390;10.256;2022-09-29T03:58:31;10.63;;;8.00;;
12328;SDS011;6230;52.390;10.256;2022-09-29T04:00:57;9.63;;;7.83;;
12328;SDS011;6230;52.390;10.256;2022-09-29T04:03:22;10.70;;;8.00;;
12328;SDS011;6230;52.390;10.256;2022-09-29T04:05:48;9.47;;;8.13;;
12328;SDS011;6230;52.390;10.256;2022-09-29T04:08:14;10.00;;;7.73;;
12328;SDS011;6230;52.390;10.256;2022-09-29T04:10:40;11.73;;;8.10;;
12328;SDS011;6230;52.390;10.256;2022-09-29T04:13:06;10.63;;;8.00;;
12328;SDS011;6230;52.390;10.256;2022-09-29T04:15:32;12.10;;;8.03;;
12328;SDS011;6230;52.390;10.256;2022-09-29T04:17:58;11.60;;;8.50;;
12328;SDS011;6230;52.390;10.256;2022-09-29T04:20:24;10.30;;;8.23;;
12328;SDS011;6230;52.390;10.256;2022-09-29T04:22:49;14.97;;;9.23;;
12328;SDS011;6230;52.390;10.256;2022-09-29T04:25:15;11.87;;;9.33;;
12328;SDS011;6230;52.390;10.256;2022-09-29T04:27:41;11.77;;;9.37;;
12328;SDS011;6230;52.390;10.256;2022-09-29T04:30:07;10.90;;;9.20;;
12328;SDS011;6230;52.390;10.256;2022-09-29T04:32:33;12.30;;;9.17;;
12328;SDS011;6230;52.390;10.256;2022-09-29T04:34:59;14.57;;;10.50;;
12328;SDS011;6230;52.390;10.256;2022-09-29T04:37:24;12.43;;;10.17;;
12328;SDS011;6230;52.390;10.256;2022-09-29T04:39:50;14.17;;;9.33;;
12328;SDS011;6230;52.390;10.256;2022-09-29T04:42:18;13.83;;;9.47;;
12328;SDS011;6230;52.390;10.256;2022-09-29T04:44:44;14.23;;;9.60;;
12328;SDS011;6230;52.390;10.256;2022-09-29T04:47:09;15.17;;;9.97;;
12328;SDS011;6230;52.390;10.256;2022-09-29T04:49:35;14.53;;;10.03;;
12328;SDS011;6230;52.390;10.256;2022-09-29T04:52:01;13.60;;;10.67;;
12328;SDS011;6230;52.390;10.256;2022-09-29T04:54:31;14.20;;;10.73;;
12328;SDS011;6230;52.390;10.256;2022-09-29T04:56:57;13.30;;;11.23;;
12328;SDS011;6230;52.390;10.256;2022-09-29T04:59:23;13.97;;;11.43;;
12328;SDS011;6230;52.390;10.256;2022-09-29T05:01:49;17.50;;;12.27;;
12328;SDS011;6230;52.390;10.256;2022-09-29T05:04:14;14.27;;;11.93;;
12328;SDS011;6230;52.390;10.256;2022-09-29T05:06:40;16.37;;;12.80;;
12328;SDS011;6230;52.390;10.256;2022-09-29T05:09:05;17.47;;;12.53;;
12328;SDS011;6230;52.390;10.256;2022-09-29T05:11:31;17.70;;;12.83;;
12328;SDS011;6230;52.390;10.256;2022-09-29T05:13:57;16.33;;;12.60;;
12328;SDS011;6230;52.390;10.256;2022-09-29T05:16:23;16.50;;;10.97;;
12328;SDS011;6230;52.390;10.256;2022-09-29T05:18:49;18.73;;;11.90;;
12328;SDS011;6230;52.390;10.256;2022-09-29T05:21:15;16.07;;;12.23;;
12328;SDS011;6230;52.390;10.256;2022-09-29T05:23:41;16.00;;;11.70;;
12328;SDS011;6230;52.390;10.256;2022-09-29T05:26:07;16.17;;;11.97;;
12328;SDS011;6230;52.390;10.256;2022-09-29T05:28:34;17.60;;;12.23;;
12328;SDS011;6230;52.390;10.256;2022-09-29T05:31:01;14.37;;;11.37;;
12328;SDS011;6230;52.390;10.256;2022-09-29T05:33:31;22.40;;;14.77;;
12328;SDS011;6230;52.390;10.256;2022-09-29T05:35:57;18.87;;;13.77;;
12328;SDS011;6230;52.390;10.256;2022-09-29T05:38:24;20.23;;;14.07;;
12328;SDS011;6230;52.390;10.256;2022-09-29T05:40:50;19.13;;;13.87;;
12328;SDS011;6230;52.390;10.256;2022-09-29T05:43:16;20.23;;;14.97;;
12328;SDS011;6230;52.390;10.256;2022-09-29T05:45:42;20.23;;;14.87;;
12328;SDS011;6230;52.390;10.256;2022-09-29T05:48:08;22.17;;;15.43;;
12328;SDS011;6230;52.390;10.256;2022-09-29T05:50:34;23.83;;;14.67;;
12328;SDS011;6230;52.390;10.256;2022-09-29T05:53:06;20.43;;;15.00;;
12328;SDS011;6230;52.390;10.256;2022-09-29T05:55:32;20.80;;;14.80;;
12328;SDS011;6230;52.390;10.256;2022-09-29T05:57:58;21.20;;;15.67;;
12328;SDS011;6230;52.390;10.256;2022-09-29T06:00:23;22.73;;;15.73;;
12328;SDS011;6230;52.390;10.256;2022-09-29T06:02:49;23.33;;;16.70;;
12328;SDS011;6230;52.390;10.256;2022-09-29T06:05:15;24.43;;;16.40;;
12328;SDS011;6230;52.390;10.256;2022-09-29T06:07:40;24.13;;;16.13;;
12328;SDS011;6230;52.390;10.256;2022-09-29T06:10:06;24.47;;;16.80;;
12328;SDS011;6230;52.390;10.256;2022-09-29T06:12:35;25.43;;;16.73;;
12328;SDS011;6230;52.390;10.256;2022-09-29T06:15:01;23.70;;;17.23;;
12328;SDS011;6230;52.390;10.256;2022-09-29T06:17:28;23.17;;;16.53;;
12328;SDS011;6230;52.390;10.256;2022-09-29T06:19:54;26.23;;;17.27;;
12328;SDS011;6230;52.390;10.256;2022-09-29T06:22:19;23.87;;;17.53;;
12328;SDS011;6230;52.390;10.256;2022-09-29T06:24:45;23.37;;;17.23;;
12328;SDS011;6230;52.390;10.256;2022-09-29T06:27:10;25.10;;;18.23;;
12328;SDS011;6230;52.390;10.256;2022-09-29T06:29:36;29.63;;;19.30;;
12328;SDS011;6230;52.390;10.256;2022-09-29T06:32:02;26.10;;;18.83;;
12328;SDS011;6230;52.390;10.256;2022-09-29T06:34:28;27.20;;;18.03;;
12328;SDS011;6230;52.390;10.256;2022-09-29T06:36:53;29.30;;;19.83;;
12328;SDS011;6230;52.390;10.256;2022-09-29T06:39:45;27.70;;;19.37;;
12328;SDS011;6230;52.390;10.256;2022-09-29T06:42:11;31.30;;;20.07;;
12328;SDS011;6230;52.390;10.256;2022-09-29T06:44:36;30.13;;;19.80;;
12328;SDS011;6230;52.390;10.256;2022-09-29T06:47:02;30.00;;;19.33;;
12328;SDS011;6230;52.390;10.256;2022-09-29T06:49:27;30.97;;;20.70;;
12328;SDS011;6230;52.390;10.256;2022-09-29T06:51:53;28.97;;;20.87;;
12328;SDS011;6230;52.390;10.256;2022-09-29T06:54:20;34.33;;;21.90;;
12328;SDS011;6230;52.390;10.256;2022-09-29T06:56:49;36.23;;;21.00;;
12328;SDS011;6230;52.390;10.256;2022-09-29T06:59:16;32.73;;;20.23;;
12328;SDS011;6230;52.390;10.256;2022-09-29T07:01:41;30.10;;;20.60;;
12328;SDS011;6230;52.390;10.256;2022-09-29T07:04:07;29.60;;;21.10;;
12328;SDS011;6230;52.390;10.256;2022-09-29T07:06:33;30.53;;;21.50;;
12328;SDS011;6230;52.390;10.256;2022-09-29T07:08:58;34.10;;;21.03;;
12328;SDS011;6230;52.390;10.256;2022-09-29T07:11:27;31.00;;;21.47;;
12328;SDS011;6230;52.390;10.256;2022-09-29T07:13:53;33.07;;;22.13;;
12328;SDS011;6230;52.390;10.256;2022-09-29T07:16:19;30.10;;;20.03;;
12328;SDS011;6230;52.390;10.256;2022-09-29T07:18:47;35.20;;;22.47;;
12328;SDS011;6230;52.390;10.256;2022-09-29T07:21:14;31.57;;;21.07;;
12328;SDS011;6230;52.390;10.256;2022-09-29T07:23:41;30.27;;;20.20;;
12328;SDS011;6230;52.390;10.256;2022-09-29T07:26:07;32.63;;;20.93;;
12328;SDS011;6230;52.390;10.256;2022-09-29T07:28:33;33.40;;;21.20;;
12328;SDS011;6230;52.390;10.256;2022-09-29T07:31:06;32.57;;;21.67;;
12328;SDS011;6230;52.390;10.256;2022-09-29T07:33:33;32.10;;;20.90;;
12328;SDS011;6230;52.390;10.256;2022-09-29T07:35:59;30.70;;;20.93;;
12328;SDS011;6230;52.390;10.256;2022-09-29T07:38:28;32.20;;;21.07;;
12328;SDS011;6230;52.390;10.256;2022-09-29T07:40:58;30.57;;;21.23;;
12328;SDS011;6230;52.390;10.256;2022-09-29T07:43:25;31.30;;;20.67;;
12328;SDS011;6230;52.390;10.256;2022-09-29T07:45:51;32.30;;;21.80;;
12328;SDS011;6230;52.390;10.256;2022-09-29T07:48:16;29.50;;;20.57;;
12328;SDS011;6230;52.390;10.256;2022-09-29T07:50:42;28.03;;;20.67;;
12328;SDS011;6230;52.390;10.256;2022-09-29T07:53:09;30.23;;;21.13;;
12328;SDS011;6230;52.390;10.256;2022-09-29T07:55:35;30.63;;;21.40;;
12328;SDS011;6230;52.390;10.256;2022-09-29T07:58:01;28.80;;;21.57;;
12328;SDS011;6230;52.390;10.256;2022-09-29T08:00:27;29.03;;;21.63;;
12328;SDS011;6230;52.390;10.256;2022-09-29T08:02:57;29.67;;;20.67;;
12328;SDS011;6230;52.390;10.256;2022-09-29T08:05:28;28.90;;;21.30;;
12328;SDS011;6230;52.390;10.256;2022-09-29T08:07:54;29.03;;;20.73;;
12328;SDS011;6230;52.390;10.256;2022-09-29T08:10:21;28.43;;;21.27;;
12328;SDS011;6230;52.390;10.256;2022-09-29T08:12:47;29.67;;;21.90;;
12328;SDS011;6230;52.390;10.256;2022-09-29T08:15:12;29.00;;;21.23;;
12328;SDS011;6230;52.390;10.256;2022-09-29T08:17:38;27.60;;;20.07;;
12328;SDS011;6230;52.390;10.256;2022-09-29T08:20:04;28.33;;;21.13;;
12328;SDS011;6230;52.390;10.256;2022-09-29T08:22:29;27.80;;;20.60;;
12328;SDS011;6230;52.390;10.256;2022-09-29T08:24:55;26.67;;;19.77;;
12328;SDS011;6230;52.390;10.256;2022-09-29T08:27:20;29.37;;;21.00;;
12328;SDS011;6230;52.390;10.256;2022-09-29T08:29:46;28.33;;;21.63;;
12328;SDS011;6230;52.390;10.256;2022-09-29T08:32:13;28.60;;;21.33;;
12328;SDS011;6230;52.390;10.256;2022-09-29T08:34:38;28.53;;;21.73;;
12328;SDS011;6230;52.390;10.256;2022-09-29T08:37:04;25.60;;;20.13;;
12328;SDS011;6230;52.390;10.256;2022-09-29T08:39:29;25.90;;;20.47;;
12328;SDS011;6230;52.390;10.256;2022-09-29T08:42:04;26.03;;;20.83;;
12328;SDS011;6230;52.390;10.256;2022-09-29T08:44:44;27.23;;;20.43;;
12328;SDS011;6230;52.390;10.256;2022-09-29T08:47:20;26.57;;;20.13;;
12328;SDS011;6230;52.390;10.256;2022-09-29T08:52:53;23.43;;;18.27;;
12328;SDS011;6230;52.390;10.256;2022-09-29T08:55:27;21.77;;;18.27;;
12328;SDS011;6230;52.390;10.256;2022-09-29T08:58:06;26.17;;;19.23;;
12328;SDS011;6230;52.390;10.256;2022-09-29T09:01:01;21.73;;;18.27;;
12328;SDS011;6230;52.390;10.256;2022-09-29T09:06:07;24.40;;;18.30;;
12328;SDS011;6230;52.390;10.256;2022-09-29T09:12:05;24.27;;;19.03;;
12328;SDS011;6230;52.390;10.256;2022-09-29T09:20:42;19.77;;;16.60;;
12328;SDS011;6230;52.390;10.256;2022-09-29T09:23:20;18.80;;;15.00;;
12328;SDS011;6230;52.390;10.256;2022-09-29T09:25:58;17.83;;;14.47;;
12328;SDS011;6230;52.390;10.256;2022-09-29T09:28:27;18.03;;;13.50;;
12328;SDS011;6230;52.390;10.256;2022-09-29T09:33:58;15.70;;;13.13;;
12328;SDS011;6230;52.390;10.256;2022-09-29T09:37:07;15.33;;;13.47;;
12328;SDS011;6230;52.390;10.256;2022-09-29T09:39:41;18.53;;;14.23;;
12328;SDS011;6230;52.390;10.256;2022-09-29T09:42:16;18.10;;;14.00;;
12328;SDS011;6230;52.390;10.256;2022-09-29T09:44:46;16.27;;;13.20;;
12328;SDS011;6230;52.390;10.256;2022-09-29T09:47:29;15.00;;;13.00;;
12328;SDS011;6230;52.390;10.256;2022-09-29T09:52:40;15.20;;;12.57;;
12328;SDS011;6230;52.390;10.256;2022-09-29T09:55:07;14.67;;;12.47;;
12328;SDS011;6230;52.390;10.256;2022-09-29T10:00:22;14.53;;;11.50;;
12328;SDS011;6230;52.390;10.256;2022-09-29T10:02:57;14.97;;;11.73;;
12328;SDS011;6230;52.390;10.256;2022-09-29T10:05:41;15.77;;;11.57;;
12328;SDS011;6230;52.390;10.256;2022-09-29T10:08:20;12.30;;;9.97;;
12328;SDS011;6230;52.390;10.256;2022-09-29T10:10:49;13.53;;;10.70;;
12328;SDS011;6230;52.390;10.256;2022-09-29T10:13:15;14.47;;;10.70;;
12328;SDS011;6230;52.390;10.256;2022-09-29T10:15:49;11.93;;;9.73;;
12328;SDS011;6230;52.390;10.256;2022-09-29T10:18:41;10.63;;;8.70;;
12328;SDS011;6230;52.390;10.256;2022-09-29T10:23:53;10.65;;;8.98;;
12328;SDS011;6230;52.390;10.256;2022-09-29T10:26:26;10.90;;;8.93;;
12328;SDS011;6230;52.390;10.256;2022-09-29T10:29:21;10.55;;;8.63;;
12328;SDS011;6230;52.390;10.256;2022-09-29T10:32:01;10.57;;;8.10;;
12328;SDS011;6230;52.390;10.256;2022-09-29T10:34:31;11.47;;;8.27;;
12328;SDS011;6230;52.390;10.256;2022-09-29T10:37:00;8.23;;;7.43;;
12328;SDS011;6230;52.390;10.256;2022-09-29T10:39:30;9.20;;;7.83;;
12328;SDS011;6230;52.390;10.256;2022-09-29T10:42:16;9.70;;;7.27;;
12328;SDS011;6230;52.390;10.256;2022-09-29T10:44:50;7.77;;;6.83;;
12328;SDS011;6230;52.390;10.256;2022-09-29T10:47:35;9.40;;;7.07;;
12328;SDS011;6230;52.390;10.256;2022-09-29T10:50:12;6.93;;;5.93;;
12328;SDS011;6230;52.390;10.256;2022-09-29T10:52:46;7.47;;;6.43;;
12328;SDS011;6230;52.390;10.256;2022-09-29T10:55:19;7.83;;;6.83;;
12328;SDS011;6230;52.390;10.256;2022-09-29T10:57:46;6.45;;;5.50;;
12328;SDS011;6230;52.390;10.256;2022-09-29T11:00:34;7.63;;;6.50;;
12328;SDS011;6230;52.390;10.256;2022-09-29T11:03:04;6.45;;;5.38;;
12328;SDS011;6230;52.390;10.256;2022-09-29T11:05:48;8.18;;;5.53;;
12328;SDS011;6230;52.390;10.256;2022-09-29T11:11:26;5.72;;;5.18;;
12328;SDS011;6230;52.390;10.256;2022-09-29T11:13:53;5.63;;;5.05;;
12328;SDS011;6230;52.390;10.256;2022-09-29T11:18:58;5.65;;;4.78;;
12328;SDS011;6230;52.390;10.256;2022-09-29T11:21:36;6.72;;;4.90;;
12328;SDS011;6230;52.390;10.256;2022-09-29T11:27:04;5.20;;;4.30;;
12328;SDS011;6230;52.390;10.256;2022-09-29T11:40:28;4.88;;;4.07;;
12328;SDS011;6230;52.390;10.256;2022-09-29T11:43:23;4.38;;;3.28;;
12328;SDS011;6230;52.390;10.256;2022-09-29T11:46:30;5.13;;;4.03;;
12328;SDS011;6230;52.390;10.256;2022-09-29T11:49:44;6.53;;;5.20;;
12328;SDS011;6230;52.390;10.256;2022-09-29T11:52:45;7.45;;;5.65;;
12328;SDS011;6230;52.390;10.256;2022-09-29T11:55:25;7.38;;;4.95;;
12328;SDS011;6230;52.390;10.256;2022-09-29T11:58:22;7.05;;;5.05;;
12328;SDS011;6230;52.390;10.256;2022-09-29T12:03:59;7.65;;;5.68;;
12328;SDS011;6230;52.390;10.256;2022-09-29T12:06:54;7.80;;;5.65;;
12328;SDS011;6230;52.390;10.256;2022-09-29T12:17:38;5.57;;;4.88;;
12328;SDS011;6230;52.390;10.256;2022-09-29T12:20:21;4.80;;;4.20;;
12328;SDS011;6230;52.390;10.256;2022-09-29T12:22:51;6.28;;;4.20;;
12328;SDS011;6230;52.390;10.256;2022-09-29T12:25:19;4.90;;;3.70;;
12328;SDS011;6230;52.390;10.256;2022-09-29T12:27:49;4.07;;;3.67;;
12328;SDS011;6230;52.390;10.256;2022-09-29T12:30:25;3.60;;;3.10;;
12328;SDS011;6230;52.390;10.256;2022-09-29T12:35:41;4.60;;;3.40;;
12328;SDS011;6230;52.390;10.256;2022-09-29T12:38:16;3.47;;;3.17;;
12328;SDS011;6230;52.390;10.256;2022-09-29T12:46:34;5.22;;;3.60;;
12328;SDS011;6230;52.390;10.256;2022-09-29T12:51:57;3.65;;;2.92;;
12328;SDS011;6230;52.390;10.256;2022-09-29T12:54:30;4.97;;;2.97;;
12328;SDS011;6230;52.390;10.256;2022-09-29T12:57:08;4.85;;;3.10;;
12328;SDS011;6230;52.390;10.256;2022-09-29T12:59:52;4.38;;;2.70;;
12328;SDS011;6230;52.390;10.256;2022-09-29T13:05:11;5.78;;;3.47;;
12328;SDS011;6230;52.390;10.256;2022-09-29T13:13:31;3.90;;;3.10;;
12328;SDS011;6230;52.390;10.256;2022-09-29T13:19:16;3.55;;;2.30;;
12328;SDS011;6230;52.390;10.256;2022-09-29T13:27:36;4.95;;;2.90;;
12328;SDS011;6230;52.390;10.256;2022-09-29T13:30:12;3.55;;;2.90;;
12328;SDS011;6230;52.390;10.256;2022-09-29T13:32:49;3.63;;;2.97;;
12328;SDS011;6230;52.390;10.256;2022-09-29T13:35:36;2.42;;;1.90;;
12328;SDS011;6230;52.390;10.256;2022-09-29T13:38:04;2.67;;;1.58;;
12328;SDS011;6230;52.390;10.256;2022-09-29T13:40:32;6.45;;;2.85;;
12328;SDS011;6230;52.390;10.256;2022-09-29T13:42:59;4.28;;;2.25;;
12328;SDS011;6230;52.390;10.256;2022-09-29T13:47:59;4.10;;;3.03;;
12328;SDS011;6230;52.390;10.256;2022-09-29T13:53:25;3.22;;;2.30;;
12328;SDS011;6230;52.390;10.256;2022-09-29T13:58:26;2.65;;;2.30;;
12328;SDS011;6230;52.390;10.256;2022-09-29T14:01:01;3.58;;;2.70;;
12328;SDS011;6230;52.390;10.256;2022-09-29T14:08:50;4.57;;;2.75;;
12328;SDS011;6230;52.390;10.256;2022-09-29T14:13:55;4.32;;;2.60;;
12328;SDS011;6230;52.390;10.256;2022-09-29T14:19:40;3.55;;;2.47;;
12328;SDS011;6230;52.390;10.256;2022-09-29T14:30:17;2.25;;;1.92;;
12328;SDS011;6230;52.390;10.256;2022-09-29T14:32:57;5.60;;;2.92;;
12328;SDS011;6230;52.390;10.256;2022-09-29T14:35:33;4.80;;;3.45;;
12328;SDS011;6230;52.390;10.256;2022-09-29T14:38:16;3.63;;;2.50;;
12328;SDS011;6230;52.390;10.256;2022-09-29T14:43:34;3.33;;;2.85;;
12328;SDS011;6230;52.390;10.256;2022-09-29T14:57:42;2.63;;;1.63;;
12328;SDS011;6230;52.390;10.256;2022-09-29T15:03:26;1.90;;;1.10;;
12328;SDS011;6230;52.390;10.256;2022-09-29T15:06:09;1.33;;;0.98;;
12328;SDS011;6230;52.390;10.256;2022-09-29T15:08:37;1.38;;;0.98;;
12328;SDS011;6230;52.390;10.256;2022-09-29T15:11:19;2.72;;;1.20;;
12328;SDS011;6230;52.390;10.256;2022-09-29T15:13:48;2.55;;;1.00;;
12328;SDS011;6230;52.390;10.256;2022-09-29T15:16:28;2.50;;;1.50;;
12328;SDS011;6230;52.390;10.256;2022-09-29T15:22:16;2.28;;;2.00;;
12328;SDS011;6230;52.390;10.256;2022-09-29T15:27:23;2.22;;;0.98;;
12328;SDS011;6230;52.390;10.256;2022-09-29T15:29:52;1.98;;;1.02;;
12328;SDS011;6230;52.390;10.256;2022-09-29T15:32:21;0.80;;;0.80;;
12328;SDS011;6230;52.390;10.256;2022-09-29T15:34:52;1.85;;;0.98;;
12328;SDS011;6230;52.390;10.256;2022-09-29T15:37:25;1.55;;;0.70;;
12328;SDS011;6230;52.390;10.256;2022-09-29T15:39:51;1.35;;;0.80;;
12328;SDS011;6230;52.390;10.256;2022-09-29T15:42:19;1.45;;;1.08;;
12328;SDS011;6230;52.390;10.256;2022-09-29T15:44:57;1.55;;;0.98;;
12328;SDS011;6230;52.390;10.256;2022-09-29T15:47:26;2.60;;;1.08;;
12328;SDS011;6230;52.390;10.256;2022-09-29T15:49:52;2.05;;;1.50;;
12328;SDS011;6230;52.390;10.256;2022-09-29T15:52:18;1.15;;;1.05;;
12328;SDS011;6230;52.390;10.256;2022-09-29T15:54:47;2.78;;;1.23;;
12328;SDS011;6230;52.390;10.256;2022-09-29T16:03:04;1.45;;;1.02;;
12328;SDS011;6230;52.390;10.256;2022-09-29T16:05:40;1.58;;;0.80;;
12328;SDS011;6230;52.390;10.256;2022-09-29T16:08:15;1.50;;;0.82;;
12328;SDS011;6230;52.390;10.256;2022-09-29T16:13:29;3.08;;;1.08;;
12328;SDS011;6230;52.390;10.256;2022-09-29T16:16:01;1.13;;;0.65;;
12328;SDS011;6230;52.390;10.256;2022-09-29T16:18:35;1.63;;;0.93;;
12328;SDS011;6230;52.390;10.256;2022-09-29T16:21:06;2.37;;;1.10;;
12328;SDS011;6230;52.390;10.256;2022-09-29T16:23:47;4.63;;;1.20;;
12328;SDS011;6230;52.390;10.256;2022-09-29T16:29:03;2.00;;;1.08;;
12328;SDS011;6230;52.390;10.256;2022-09-29T16:31:30;3.20;;;1.10;;
12328;SDS011;6230;52.390;10.256;2022-09-29T16:33:59;2.70;;;0.90;;
12328;SDS011;6230;52.390;10.256;2022-09-29T16:36:26;1.73;;;1.10;;
12328;SDS011;6230;52.390;10.256;2022-09-29T16:38:57;3.00;;;1.00;;
12328;SDS011;6230;52.390;10.256;2022-09-29T16:41:27;3.22;;;1.10;;
12328;SDS011;6230;52.390;10.256;2022-09-29T16:44:16;4.65;;;2.20;;
12328;SDS011;6230;52.390;10.256;2022-09-29T16:46:50;4.15;;;1.75;;
12328;SDS011;6230;52.390;10.256;2022-09-29T16:52:10;23.25;;;10.15;;
12328;SDS011;6230;52.390;10.256;2022-09-29T16:54:43;32.53;;;12.23;;
12328;SDS011;6230;52.390;10.256;2022-09-29T16:57:21;21.17;;;9.48;;
12328;SDS011;6230;52.390;10.256;2022-09-29T17:02:21;19.05;;;8.70;;
12328;SDS011;6230;52.390;10.256;2022-09-29T17:04:48;17.33;;;9.50;;
12328;SDS011;6230;52.390;10.256;2022-09-29T17:07:15;19.30;;;10.52;;
12328;SDS011;6230;52.390;10.256;2022-09-29T17:09:42;13.80;;;8.93;;
12328;SDS011;6230;52.390;10.256;2022-09-29T17:12:14;12.43;;;8.63;;
12328;SDS011;6230;52.390;10.256;2022-09-29T17:14:41;16.13;;;9.33;;
12328;SDS011;6230;52.390;10.256;2022-09-29T17:17:10;12.90;;;8.18;;
12328;SDS011;6230;52.390;10.256;2022-09-29T17:19:40;12.80;;;7.00;;
12328;SDS011;6230;52.390;10.256;2022-09-29T17:22:26;9.27;;;7.07;;
12328;SDS011;6230;52.390;10.256;2022-09-29T17:24:57;11.57;;;8.10;;
12328;SDS011;6230;52.390;10.256;2022-09-29T17:27:23;12.53;;;7.60;;
12328;SDS011;6230;52.390;10.256;2022-09-29T17:30:08;13.70;;;7.43;;
12328;SDS011;6230;52.390;10.256;2022-09-29T17:32:35;8.67;;;6.00;;
12328;SDS011;6230;52.390;10.256;2022-09-29T17:35:01;10.60;;;6.63;;
12328;SDS011;6230;52.390;10.256;2022-09-29T17:37:27;9.47;;;6.50;;
12328;SDS011;6230;52.390;10.256;2022-09-29T17:39:53;10.63;;;7.10;;
12328;SDS011;6230;52.390;10.256;2022-09-29T17:42:21;12.53;;;8.00;;
12328;SDS011;6230;52.390;10.256;2022-09-29T17:44:50;10.97;;;8.07;;
12328;SDS011;6230;52.390;10.256;2022-09-29T17:47:16;10.73;;;8.37;;
12328;SDS011;6230;52.390;10.256;2022-09-29T17:49:43;13.57;;;8.37;;
12328;SDS011;6230;52.390;10.256;2022-09-29T17:52:09;10.20;;;8.20;;
12328;SDS011;6230;52.390;10.256;2022-09-29T17:54:39;8.77;;;6.83;;
12328;SDS011;6230;52.390;10.256;2022-09-29T17:57:05;10.77;;;7.43;;
12328;SDS011;6230;52.390;10.256;2022-09-29T17:59:32;8.10;;;6.53;;
12328;SDS011;6230;52.390;10.256;2022-09-29T18:02:08;8.37;;;6.40;;